sensor_id;sensor_type;location;lat;lon;timestamp;pressure;altitude;pressure_sealevel;temperature;humidity
29505;BME280;16452;54.174;12.092;2022-09-09T00:00:48;100688.56;;;18.01;100.00
29505;BME280;16452;54.174;12.092;2022-09-09T00:03:26;100689.59;;;18.10;100.00
29505;BME280;16452;54.174;12.092;2022-09-09T00:06:21;100709.56;;;18.13;100.00
29505;BME280;16452;54.174;12.092;2022-09-09T00:09:06;100703.16;;;18.26;100.00
29505;BME280;16452;54.174;12.092;2022-09-09T00:11:53;100694.91;;;18.20;100.00
29505;BME280;16452;54.174;12.092;2022-09-09T00:14:35;100701.88;;;18.21;100.00
29505;BME280;16452;54.174;12.092;2022-09-09T00:17:12;100700.38;;;18.28;100.00
29505;BME280;16452;54.174;12.092;2022-09-09T00:19:56;100701.78;;;18.32;100.00
29505;BME280;16452;54.174;12.092;2022-09-09T00:22:30;100698.78;;;18.16;100.00
29505;BME280;16452;54.174;12.092;2022-09-09T00:25:12;100701.59;;;18.24;100.00
29505;BME280;16452;54.174;12.092;2022-09-09T00:27:49;100700.50;;;18.26;100.00
29505;BME280;16452;54.174;12.092;2022-09-09T00:30:24;100699.28;;;18.30;100.00
29505;BME280;16452;54.174;12.092;2022-09-09T00:33:12;100699.66;;;18.26;100.00
29505;BME280;16452;54.174;12.092;2022-09-09T00:35:47;100698.44;;;18.30;100.00
29505;BME280;16452;54.174;12.092;2022-09-09T00:38:19;100702.19;;;18.27;100.00
29505;BME280;16452;54.174;12.092;2022-09-09T00:41:04;100691.03;;;18.24;100.00
29505;BME280;16452;54.174;12.092;2022-09-09T00:43:36;100699.34;;;18.19;100.00
29505;BME280;16452;54.174;12.092;2022-09-09T00:52:11;100704.50;;;18.21;100.00
29505;BME280;16452;54.174;12.092;2022-09-09T00:57:36;100702.88;;;18.29;100.00
29505;BME280;16452;54.174;12.092;2022-09-09T01:03:37;100700.06;;;18.21;100.00
29505;BME280;16452;54.174;12.092;2022-09-09T01:06:32;100694.88;;;18.40;100.00
29505;BME280;16452;54.174;12.092;2022-09-09T01:17:20;100691.56;;;18.18;100.00
29505;BME280;16452;54.174;12.092;2022-09-09T01:23:21;100702.78;;;18.61;100.00
29505;BME280;16452;54.174;12.092;2022-09-09T01:26:30;100707.00;;;18.53;100.00
29505;BME280;16452;54.174;12.092;2022-09-09T01:28:59;100712.56;;;18.29;100.00
29505;BME280;16452;54.174;12.092;2022-09-09T01:31:31;100711.16;;;18.45;100.00
29505;BME280;16452;54.174;12.092;2022-09-09T01:33:58;100709.41;;;18.04;100.00
29505;BME280;16452;54.174;12.092;2022-09-09T01:36:53;100713.69;;;18.26;100.00
29505;BME280;16452;54.174;12.092;2022-09-09T01:39:21;100720.56;;;18.38;100.00
29505;BME280;16452;54.174;12.092;2022-09-09T01:41:47;100716.66;;;18.33;100.00
29505;BME280;16452;54.174;12.092;2022-09-09T01:44:13;100723.00;;;18.51;100.00
29505;BME280;16452;54.174;12.092;2022-09-09T01:46:39;100726.59;;;18.50;100.00
29505;BME280;16452;54.174;12.092;2022-09-09T01:49:07;100731.25;;;18.37;100.00
29505;BME280;16452;54.174;12.092;2022-09-09T01:51:35;100729.63;;;18.45;100.00
29505;BME280;16452;54.174;12.092;2022-09-09T01:54:02;100731.94;;;18.39;100.00
29505;BME280;16452;54.174;12.092;2022-09-09T01:56:58;100733.28;;;18.54;100.00
29505;BME280;16452;54.174;12.092;2022-09-09T02:02:39;100735.69;;;18.36;100.00
29505;BME280;16452;54.174;12.092;2022-09-09T02:07:51;100717.28;;;18.25;100.00
29505;BME280;16452;54.174;12.092;2022-09-09T02:10:55;100723.38;;;18.46;100.00
29505;BME280;16452;54.174;12.092;2022-09-09T02:13:22;100726.09;;;18.35;100.00
29505;BME280;16452;54.174;12.092;2022-09-09T02:16:08;100728.78;;;18.45;100.00
29505;BME280;16452;54.174;12.092;2022-09-09T02:21:24;100735.34;;;18.51;100.00
29505;BME280;16452;54.174;12.092;2022-09-09T02:23:54;100740.88;;;18.47;100.00
29505;BME280;16452;54.174;12.092;2022-09-09T02:26:22;100735.88;;;18.44;100.00
29505;BME280;16452;54.174;12.092;2022-09-09T02:28:50;100730.59;;;18.44;100.00
29505;BME280;16452;54.174;12.092;2022-09-09T02:31:20;100734.84;;;18.36;100.00
29505;BME280;16452;54.174;12.092;2022-09-09T02:33:56;100728.63;;;18.16;100.00
29505;BME280;16452;54.174;12.092;2022-09-09T02:36:25;100740.97;;;17.95;100.00
29505;BME280;16452;54.174;12.092;2022-09-09T02:38:52;100734.47;;;18.20;100.00
29505;BME280;16452;54.174;12.092;2022-09-09T02:41:36;100740.03;;;18.47;100.00
29505;BME280;16452;54.174;12.092;2022-09-09T02:44:15;100738.91;;;18.19;100.00
29505;BME280;16452;54.174;12.092;2022-09-09T02:47:16;100734.63;;;18.48;100.00
29505;BME280;16452;54.174;12.092;2022-09-09T02:50:17;100721.97;;;18.42;100.00
29505;BME280;16452;54.174;12.092;2022-09-09T02:53:16;100736.19;;;18.51;100.00
29505;BME280;16452;54.174;12.092;2022-09-09T02:56:00;100733.28;;;18.54;100.00
29505;BME280;16452;54.174;12.092;2022-09-09T02:58:29;100734.31;;;18.42;100.00
29505;BME280;16452;54.174;12.092;2022-09-09T03:00:56;100729.34;;;18.48;100.00
29505;BME280;16452;54.174;12.092;2022-09-09T03:03:23;100734.91;;;18.45;100.00
29505;BME280;16452;54.174;12.092;2022-09-09T03:05:49;100736.94;;;18.42;100.00
29505;BME280;16452;54.174;12.092;2022-09-09T03:08:16;100736.31;;;18.50;100.00
29505;BME280;16452;54.174;12.092;2022-09-09T03:10:42;100730.09;;;18.30;100.00
29505;BME280;16452;54.174;12.092;2022-09-09T03:13:08;100721.19;;;18.52;100.00
29505;BME280;16452;54.174;12.092;2022-09-09T03:15:34;100726.31;;;18.53;100.00
29505;BME280;16452;54.174;12.092;2022-09-09T03:18:01;100732.94;;;18.47;100.00
29505;BME280;16452;54.174;12.092;2022-09-09T03:20:28;100723.06;;;18.61;100.00
29505;BME280;16452;54.174;12.092;2022-09-09T03:22:55;100733.31;;;18.33;100.00
29505;BME280;16452;54.174;12.092;2022-09-09T03:25:22;100735.88;;;18.44;100.00
29505;BME280;16452;54.174;12.092;2022-09-09T03:27:53;100733.41;;;18.53;100.00
29505;BME280;16452;54.174;12.092;2022-09-09T03:30:25;100743.81;;;18.54;100.00
29505;BME280;16452;54.174;12.092;2022-09-09T03:32:54;100745.44;;;18.66;100.00
29505;BME280;16452;54.174;12.092;2022-09-09T03:35:23;100743.47;;;18.59;100.00
29505;BME280;16452;54.174;12.092;2022-09-09T03:37:49;100747.69;;;18.50;100.00
29505;BME280;16452;54.174;12.092;2022-09-09T03:40:15;100747.09;;;18.58;100.00
29505;BME280;16452;54.174;12.092;2022-09-09T03:42:41;100744.56;;;18.56;100.00
29505;BME280;16452;54.174;12.092;2022-09-09T03:45:09;100744.72;;;18.64;100.00
29505;BME280;16452;54.174;12.092;2022-09-09T03:47:36;100750.16;;;18.42;100.00
29505;BME280;16452;54.174;12.092;2022-09-09T03:50:04;100741.03;;;18.46;100.00
29505;BME280;16452;54.174;12.092;2022-09-09T03:52:31;100748.53;;;18.51;100.00
29505;BME280;16452;54.174;12.092;2022-09-09T03:54:59;100742.91;;;18.34;100.00
29505;BME280;16452;54.174;12.092;2022-09-09T03:57:25;100733.50;;;18.21;100.00
29505;BME280;16452;54.174;12.092;2022-09-09T03:59:50;100754.53;;;18.32;100.00
29505;BME280;16452;54.174;12.092;2022-09-09T04:02:16;100750.28;;;18.40;100.00
29505;BME280;16452;54.174;12.092;2022-09-09T04:04:42;100750.03;;;18.43;100.00
29505;BME280;16452;54.174;12.092;2022-09-09T04:07:07;100746.66;;;18.41;100.00
29505;BME280;16452;54.174;12.092;2022-09-09T04:09:33;100747.94;;;18.47;100.00
29505;BME280;16452;54.174;12.092;2022-09-09T04:12:00;100757.41;;;18.29;100.00
29505;BME280;16452;54.174;12.092;2022-09-09T04:14:26;100756.53;;;18.39;100.00
29505;BME280;16452;54.174;12.092;2022-09-09T04:16:54;100758.72;;;18.34;100.00
29505;BME280;16452;54.174;12.092;2022-09-09T04:19:22;100763.69;;;18.28;100.00
29505;BME280;16452;54.174;12.092;2022-09-09T04:21:48;100770.28;;;18.43;100.00
29505;BME280;16452;54.174;12.092;2022-09-09T04:24:16;100765.88;;;18.23;100.00
29505;BME280;16452;54.174;12.092;2022-09-09T04:26:45;100760.53;;;18.34;100.00
29505;BME280;16452;54.174;12.092;2022-09-09T04:29:12;100769.56;;;18.41;100.00
29505;BME280;16452;54.174;12.092;2022-09-09T04:31:38;100769.00;;;18.37;100.00
29505;BME280;16452;54.174;12.092;2022-09-09T04:34:12;100771.41;;;18.61;100.00
29505;BME280;16452;54.174;12.092;2022-09-09T04:36:38;100771.72;;;18.26;100.00
29505;BME280;16452;54.174;12.092;2022-09-09T04:39:06;100768.97;;;18.28;100.00
29505;BME280;16452;54.174;12.092;2022-09-09T04:41:31;100774.94;;;18.51;100.00
29505;BME280;16452;54.174;12.092;2022-09-09T04:43:58;100769.91;;;18.27;100.00
29505;BME280;16452;54.174;12.092;2022-09-09T04:46:25;100768.38;;;18.45;100.00
29505;BME280;16452;54.174;12.092;2022-09-09T04:48:51;100769.34;;;18.44;100.00
29505;BME280;16452;54.174;12.092;2022-09-09T04:51:18;100773.81;;;18.53;100.00
29505;BME280;16452;54.174;12.092;2022-09-09T04:53:44;100779.69;;;18.36;100.00
29505;BME280;16452;54.174;12.092;2022-09-09T04:56:15;100780.28;;;18.39;100.00
29505;BME280;16452;54.174;12.092;2022-09-09T04:58:42;100780.88;;;18.53;100.00
29505;BME280;16452;54.174;12.092;2022-09-09T05:01:16;100782.06;;;18.60;100.00
29505;BME280;16452;54.174;12.092;2022-09-09T05:03:45;100783.53;;;18.53;100.00
29505;BME280;16452;54.174;12.092;2022-09-09T05:06:14;100788.63;;;18.65;100.00
29505;BME280;16452;54.174;12.092;2022-09-09T05:08:42;100793.13;;;18.74;100.00
29505;BME280;16452;54.174;12.092;2022-09-09T05:11:18;100792.91;;;18.57;100.00
29505;BME280;16452;54.174;12.092;2022-09-09T05:13:45;100793.97;;;18.54;100.00
29505;BME280;16452;54.174;12.092;2022-09-09T05:16:12;100785.69;;;18.59;100.00
29505;BME280;16452;54.174;12.092;2022-09-09T05:18:40;100791.09;;;18.57;100.00
29505;BME280;16452;54.174;12.092;2022-09-09T05:21:06;100799.78;;;18.69;100.00
29505;BME280;16452;54.174;12.092;2022-09-09T05:23:36;100808.75;;;18.87;100.00
29505;BME280;16452;54.174;12.092;2022-09-09T05:26:04;100795.16;;;18.61;100.00
29505;BME280;16452;54.174;12.092;2022-09-09T05:28:30;100799.75;;;18.48;100.00
29505;BME280;16452;54.174;12.092;2022-09-09T05:31:17;100802.84;;;18.74;100.00
29505;BME280;16452;54.174;12.092;2022-09-09T05:33:45;100801.66;;;18.57;100.00
29505;BME280;16452;54.174;12.092;2022-09-09T05:36:17;100807.78;;;18.58;100.00
29505;BME280;16452;54.174;12.092;2022-09-09T05:38:43;100801.38;;;18.60;100.00
29505;BME280;16452;54.174;12.092;2022-09-09T05:41:11;100811.22;;;18.79;100.00
29505;BME280;16452;54.174;12.092;2022-09-09T05:43:37;100806.47;;;18.73;100.00
29505;BME280;16452;54.174;12.092;2022-09-09T05:46:06;100805.41;;;18.85;100.00
29505;BME280;16452;54.174;12.092;2022-09-09T05:48:40;100809.28;;;18.81;100.00
29505;BME280;16452;54.174;12.092;2022-09-09T05:51:09;100805.50;;;18.74;100.00
29505;BME280;16452;54.174;12.092;2022-09-09T05:53:38;100797.31;;;18.77;100.00
29505;BME280;16452;54.174;12.092;2022-09-09T05:56:07;100802.38;;;18.90;100.00
29505;BME280;16452;54.174;12.092;2022-09-09T05:58:36;100807.66;;;18.90;100.00
29505;BME280;16452;54.174;12.092;2022-09-09T06:01:11;100812.69;;;18.93;100.00
29505;BME280;16452;54.174;12.092;2022-09-09T06:03:40;100806.84;;;18.99;100.00
29505;BME280;16452;54.174;12.092;2022-09-09T06:06:16;100806.97;;;18.67;100.00
29505;BME280;16452;54.174;12.092;2022-09-09T06:08:44;100810.31;;;18.99;100.00
29505;BME280;16452;54.174;12.092;2022-09-09T06:11:26;100813.56;;;19.12;100.00
29505;BME280;16452;54.174;12.092;2022-09-09T06:13:52;100820.34;;;19.05;100.00
29505;BME280;16452;54.174;12.092;2022-09-09T06:16:23;100819.50;;;19.05;100.00
29505;BME280;16452;54.174;12.092;2022-09-09T06:18:49;100823.50;;;18.90;100.00
29505;BME280;16452;54.174;12.092;2022-09-09T06:21:19;100824.00;;;19.04;100.00
29505;BME280;16452;54.174;12.092;2022-09-09T06:23:46;100825.28;;;18.89;100.00
29505;BME280;16452;54.174;12.092;2022-09-09T06:26:16;100832.59;;;19.06;100.00
29505;BME280;16452;54.174;12.092;2022-09-09T06:28:45;100833.38;;;19.27;100.00
29505;BME280;16452;54.174;12.092;2022-09-09T06:31:13;100829.50;;;19.32;100.00
29505;BME280;16452;54.174;12.092;2022-09-09T06:33:41;100834.88;;;19.20;100.00
29505;BME280;16452;54.174;12.092;2022-09-09T06:36:18;100828.81;;;18.99;100.00
29505;BME280;16452;54.174;12.092;2022-09-09T06:38:45;100834.00;;;19.10;100.00
29505;BME280;16452;54.174;12.092;2022-09-09T06:41:14;100832.66;;;18.85;100.00
29505;BME280;16452;54.174;12.092;2022-09-09T06:43:40;100829.53;;;19.01;100.00
29505;BME280;16452;54.174;12.092;2022-09-09T06:46:13;100834.47;;;19.25;100.00
29505;BME280;16452;54.174;12.092;2022-09-09T06:48:40;100835.41;;;19.14;100.00
29505;BME280;16452;54.174;12.092;2022-09-09T06:51:17;100835.28;;;19.16;100.00
29505;BME280;16452;54.174;12.092;2022-09-09T06:53:45;100829.19;;;19.25;100.00
29505;BME280;16452;54.174;12.092;2022-09-09T06:58:40;100827.28;;;19.27;100.00
29505;BME280;16452;54.174;12.092;2022-09-09T07:01:15;100823.28;;;19.42;100.00
29505;BME280;16452;54.174;12.092;2022-09-09T07:03:44;100830.28;;;19.53;100.00
29505;BME280;16452;54.174;12.092;2022-09-09T07:06:17;100829.19;;;19.55;100.00
29505;BME280;16452;54.174;12.092;2022-09-09T07:08:55;100837.13;;;19.65;100.00
29505;BME280;16452;54.174;12.092;2022-09-09T07:11:24;100834.28;;;19.47;100.00
29505;BME280;16452;54.174;12.092;2022-09-09T07:13:53;100847.03;;;19.73;99.69
29505;BME280;16452;54.174;12.092;2022-09-09T07:16:21;100844.66;;;19.79;100.00
29505;BME280;16452;54.174;12.092;2022-09-09T07:18:49;100858.81;;;19.59;100.00
29505;BME280;16452;54.174;12.092;2022-09-09T07:21:16;100857.84;;;19.60;100.00
29505;BME280;16452;54.174;12.092;2022-09-09T07:23:42;100858.81;;;19.28;100.00
29505;BME280;16452;54.174;12.092;2022-09-09T07:26:15;100868.41;;;19.50;100.00
29505;BME280;16452;54.174;12.092;2022-09-09T07:28:42;100865.47;;;19.53;100.00
29505;BME280;16452;54.174;12.092;2022-09-09T07:31:18;100868.72;;;19.66;100.00
29505;BME280;16452;54.174;12.092;2022-09-09T07:33:45;100869.44;;;19.38;100.00
29505;BME280;16452;54.174;12.092;2022-09-09T07:36:25;100866.75;;;19.68;100.00
29505;BME280;16452;54.174;12.092;2022-09-09T07:38:57;100869.13;;;19.72;100.00
29505;BME280;16452;54.174;12.092;2022-09-09T07:41:31;100869.44;;;19.88;99.50
29505;BME280;16452;54.174;12.092;2022-09-09T07:44:04;100875.69;;;19.87;100.00
29505;BME280;16452;54.174;12.092;2022-09-09T07:46:30;100869.69;;;19.65;100.00
29505;BME280;16452;54.174;12.092;2022-09-09T07:48:57;100883.19;;;19.72;100.00
29505;BME280;16452;54.174;12.092;2022-09-09T07:51:33;100880.78;;;19.50;100.00
29505;BME280;16452;54.174;12.092;2022-09-09T07:54:05;100878.75;;;19.73;100.00
29505;BME280;16452;54.174;12.092;2022-09-09T07:56:32;100884.81;;;19.63;100.00
29505;BME280;16452;54.174;12.092;2022-09-09T07:58:59;100887.94;;;19.78;100.00
29505;BME280;16452;54.174;12.092;2022-09-09T08:01:33;100886.44;;;19.85;98.88
29505;BME280;16452;54.174;12.092;2022-09-09T08:04:06;100880.91;;;19.48;100.00
29505;BME280;16452;54.174;12.092;2022-09-09T08:06:37;100880.78;;;19.29;100.00
29505;BME280;16452;54.174;12.092;2022-09-09T08:09:08;100897.59;;;19.49;100.00
29505;BME280;16452;54.174;12.092;2022-09-09T08:11:34;100885.25;;;19.59;100.00
29505;BME280;16452;54.174;12.092;2022-09-09T08:14:02;100877.91;;;19.62;100.00
29505;BME280;16452;54.174;12.092;2022-09-09T08:16:32;100887.41;;;19.94;99.65
29505;BME280;16452;54.174;12.092;2022-09-09T08:19:00;100888.91;;;19.77;99.05
29505;BME280;16452;54.174;12.092;2022-09-09T08:21:28;100890.16;;;19.73;99.60
29505;BME280;16452;54.174;12.092;2022-09-09T08:24:00;100887.81;;;19.99;98.12
29505;BME280;16452;54.174;12.092;2022-09-09T08:26:35;100895.09;;;19.47;100.00
29505;BME280;16452;54.174;12.092;2022-09-09T08:29:04;100898.34;;;19.70;100.00
29505;BME280;16452;54.174;12.092;2022-09-09T08:31:34;100900.63;;;19.94;97.51
29505;BME280;16452;54.174;12.092;2022-09-09T08:34:01;100911.13;;;19.65;98.45
29505;BME280;16452;54.174;12.092;2022-09-09T08:36:34;100904.41;;;20.10;97.01
29505;BME280;16452;54.174;12.092;2022-09-09T08:39:02;100919.25;;;19.73;99.60
29505;BME280;16452;54.174;12.092;2022-09-09T08:41:39;100918.75;;;20.08;97.48
29505;BME280;16452;54.174;12.092;2022-09-09T08:50:27;100924.94;;;20.37;94.84
29505;BME280;16452;54.174;12.092;2022-09-09T08:53:19;100929.63;;;20.15;96.14
29505;BME280;16452;54.174;12.092;2022-09-09T08:55:57;100929.41;;;20.37;94.93
29505;BME280;16452;54.174;12.092;2022-09-09T08:58:29;100929.53;;;20.45;95.36
29505;BME280;16452;54.174;12.092;2022-09-09T09:04:22;100918.34;;;20.80;93.34
29505;BME280;16452;54.174;12.092;2022-09-09T09:11:08;100916.53;;;20.90;87.67
29505;BME280;16452;54.174;12.092;2022-09-09T09:16:49;100927.13;;;20.90;89.34
29505;BME280;16452;54.174;12.092;2022-09-09T09:19:17;100923.66;;;20.80;89.27
29505;BME280;16452;54.174;12.092;2022-09-09T09:24:59;100927.13;;;20.80;90.49
29505;BME280;16452;54.174;12.092;2022-09-09T09:30:26;100927.28;;;20.88;91.61
29505;BME280;16452;54.174;12.092;2022-09-09T09:33:32;100931.25;;;21.21;89.63
29505;BME280;16452;54.174;12.092;2022-09-09T09:36:01;100938.00;;;20.97;90.48
29505;BME280;16452;54.174;12.092;2022-09-09T09:38:29;100927.38;;;21.06;90.10
29505;BME280;16452;54.174;12.092;2022-09-09T09:40:58;100924.13;;;21.22;87.78
29505;BME280;16452;54.174;12.092;2022-09-09T09:43:36;100924.13;;;21.22;88.07
29505;BME280;16452;54.174;12.092;2022-09-09T09:46:17;100920.91;;;21.28;87.38
29505;BME280;16452;54.174;12.092;2022-09-09T09:48:44;100923.75;;;20.98;89.07
29505;BME280;16452;54.174;12.092;2022-09-09T09:51:14;100923.09;;;20.96;87.88
29505;BME280;16452;54.174;12.092;2022-09-09T09:53:43;100913.16;;;20.98;88.04
29505;BME280;16452;54.174;12.092;2022-09-09T09:56:13;100920.13;;;21.08;88.52
29505;BME280;16452;54.174;12.092;2022-09-09T09:58:51;100915.63;;;21.09;88.76
29505;BME280;16452;54.174;12.092;2022-09-09T10:01:26;100909.28;;;21.39;87.66
29505;BME280;16452;54.174;12.092;2022-09-09T10:03:58;100913.41;;;21.60;86.84
29505;BME280;16452;54.174;12.092;2022-09-09T10:06:36;100911.41;;;21.90;84.96
29505;BME280;16452;54.174;12.092;2022-09-09T10:09:28;100916.31;;;22.12;83.50
29505;BME280;16452;54.174;12.092;2022-09-09T10:12:24;100915.78;;;22.26;83.09
29505;BME280;16452;54.174;12.092;2022-09-09T10:21:20;100912.34;;;22.69;81.23
29505;BME280;16452;54.174;12.092;2022-09-09T10:24:36;100911.44;;;22.78;80.93
29505;BME280;16452;54.174;12.092;2022-09-09T10:30:19;100909.78;;;22.60;81.34
29505;BME280;16452;54.174;12.092;2022-09-09T10:32:57;100909.56;;;22.53;80.49
29505;BME280;16452;54.174;12.092;2022-09-09T10:35:53;100911.28;;;22.62;80.74
29505;BME280;16452;54.174;12.092;2022-09-09T10:38:42;100909.19;;;22.48;80.84
29505;BME280;16452;54.174;12.092;2022-09-09T10:41:50;100899.75;;;22.71;80.83
29505;BME280;16452;54.174;12.092;2022-09-09T10:45:00;100901.50;;;22.80;81.18
29505;BME280;16452;54.174;12.092;2022-09-09T10:50:29;100907.53;;;23.16;78.58
29505;BME280;16452;54.174;12.092;2022-09-09T10:55:55;100919.84;;;23.17;78.61
29505;BME280;16452;54.174;12.092;2022-09-09T10:59:02;100915.09;;;23.37;79.83
29505;BME280;16452;54.174;12.092;2022-09-09T11:07:36;100924.00;;;23.20;79.42
29505;BME280;16452;54.174;12.092;2022-09-09T11:12:47;100919.94;;;23.33;78.98
29505;BME280;16452;54.174;12.092;2022-09-09T11:15:25;100916.91;;;23.28;80.07
29505;BME280;16452;54.174;12.092;2022-09-09T11:17:58;100926.91;;;23.09;79.35
29505;BME280;16452;54.174;12.092;2022-09-09T11:20:26;100936.63;;;23.18;80.99
29505;BME280;16452;54.174;12.092;2022-09-09T11:23:03;100937.13;;;23.47;78.92
29505;BME280;16452;54.174;12.092;2022-09-09T11:25:39;100934.66;;;23.54;78.17
29505;BME280;16452;54.174;12.092;2022-09-09T11:40:23;100938.16;;;23.54;77.70
29505;BME280;16452;54.174;12.092;2022-09-09T11:42:49;100928.75;;;23.34;78.14
29505;BME280;16452;54.174;12.092;2022-09-09T11:45:27;100938.38;;;23.35;77.34
29505;BME280;16452;54.174;12.092;2022-09-09T11:48:03;100938.00;;;23.56;76.41
29505;BME280;16452;54.174;12.092;2022-09-09T11:50:35;100930.56;;;23.33;77.22
29505;BME280;16452;54.174;12.092;2022-09-09T11:53:21;100945.50;;;23.52;76.29
29505;BME280;16452;54.174;12.092;2022-09-09T11:56:33;100943.09;;;23.75;75.73
29505;BME280;16452;54.174;12.092;2022-09-09T11:59:05;100940.22;;;23.68;76.09
29505;BME280;16452;54.174;12.092;2022-09-09T12:01:36;100938.59;;;23.76;76.59
29505;BME280;16452;54.174;12.092;2022-09-09T12:04:11;100938.13;;;23.80;76.76
29505;BME280;16452;54.174;12.092;2022-09-09T12:06:58;100946.88;;;23.72;77.32
29505;BME280;16452;54.174;12.092;2022-09-09T12:09:59;100934.34;;;23.99;76.63
29505;BME280;16452;54.174;12.092;2022-09-09T12:12:31;100941.81;;;23.95;76.74
29505;BME280;16452;54.174;12.092;2022-09-09T12:17:54;100942.09;;;24.34;75.68
29505;BME280;16452;54.174;12.092;2022-09-09T12:20:36;100930.25;;;24.29;76.00
29505;BME280;16452;54.174;12.092;2022-09-09T12:23:50;100926.28;;;24.33;75.41
29505;BME280;16452;54.174;12.092;2022-09-09T12:27:03;100931.41;;;24.18;75.79
29505;BME280;16452;54.174;12.092;2022-09-09T12:29:51;100928.59;;;24.36;75.42
29505;BME280;16452;54.174;12.092;2022-09-09T12:32:25;100916.72;;;24.06;76.64
29505;BME280;16452;54.174;12.092;2022-09-09T12:35:09;100917.28;;;24.26;75.94
29505;BME280;16452;54.174;12.092;2022-09-09T12:37:38;100915.59;;;24.17;76.43
29505;BME280;16452;54.174;12.092;2022-09-09T12:42:48;100918.19;;;24.00;76.81
29505;BME280;16452;54.174;12.092;2022-09-09T12:45:25;100914.75;;;24.16;75.99
29505;BME280;16452;54.174;12.092;2022-09-09T12:48:07;100919.75;;;24.19;76.02
29505;BME280;16452;54.174;12.092;2022-09-09T12:50:46;100924.50;;;23.91;76.77
29505;BME280;16452;54.174;12.092;2022-09-09T12:53:24;100922.22;;;24.04;74.86
29505;BME280;16452;54.174;12.092;2022-09-09T12:56:22;100919.41;;;24.14;74.06
29505;BME280;16452;54.174;12.092;2022-09-09T12:58:52;100913.00;;;23.83;75.57
29505;BME280;16452;54.174;12.092;2022-09-09T13:01:31;100914.38;;;24.03;74.50
29505;BME280;16452;54.174;12.092;2022-09-09T13:03:59;100913.53;;;23.94;75.32
29505;BME280;16452;54.174;12.092;2022-09-09T13:06:31;100911.69;;;23.87;76.03
29505;BME280;16452;54.174;12.092;2022-09-09T13:08:59;100905.72;;;24.01;75.40
29505;BME280;16452;54.174;12.092;2022-09-09T13:11:38;100903.75;;;24.11;75.10
29505;BME280;16452;54.174;12.092;2022-09-09T13:14:28;100897.50;;;24.28;73.12
29505;BME280;16452;54.174;12.092;2022-09-09T13:16:57;100901.16;;;24.27;72.83
29505;BME280;16452;54.174;12.092;2022-09-09T13:19:24;100905.94;;;24.24;73.35
29505;BME280;16452;54.174;12.092;2022-09-09T13:21:53;100901.44;;;24.16;73.79
29505;BME280;16452;54.174;12.092;2022-09-09T13:24:34;100904.31;;;24.23;73.96
29505;BME280;16452;54.174;12.092;2022-09-09T13:27:02;100894.75;;;24.12;75.07
29505;BME280;16452;54.174;12.092;2022-09-09T13:29:28;100898.41;;;24.03;75.64
29505;BME280;16452;54.174;12.092;2022-09-09T13:32:15;100897.41;;;24.04;75.10
29505;BME280;16452;54.174;12.092;2022-09-09T13:34:58;100906.38;;;23.87;76.58
29505;BME280;16452;54.174;12.092;2022-09-09T13:37:37;100907.19;;;23.95;76.46
29505;BME280;16452;54.174;12.092;2022-09-09T13:40:06;100903.19;;;23.75;77.91
29505;BME280;16452;54.174;12.092;2022-09-09T13:42:41;100897.31;;;23.71;77.75
29505;BME280;16452;54.174;12.092;2022-09-09T13:45:18;100902.25;;;23.50;78.54
29505;BME280;16452;54.174;12.092;2022-09-09T13:47:46;100897.41;;;23.20;79.32
29505;BME280;16452;54.174;12.092;2022-09-09T13:50:29;100896.97;;;23.58;78.03
29505;BME280;16452;54.174;12.092;2022-09-09T13:52:58;100892.59;;;23.49;78.84
29505;BME280;16452;54.174;12.092;2022-09-09T13:55:29;100900.63;;;23.31;79.97
29505;BME280;16452;54.174;12.092;2022-09-09T13:58:03;100900.13;;;23.28;79.77
29505;BME280;16452;54.174;12.092;2022-09-09T14:00:33;100901.88;;;23.19;79.04
29505;BME280;16452;54.174;12.092;2022-09-09T14:02:59;100900.59;;;22.98;80.66
29505;BME280;16452;54.174;12.092;2022-09-09T14:07:53;100896.25;;;22.71;80.55
29505;BME280;16452;54.174;12.092;2022-09-09T14:10:19;100886.97;;;22.92;80.33
29505;BME280;16452;54.174;12.092;2022-09-09T14:12:45;100891.56;;;22.82;80.06
29505;BME280;16452;54.174;12.092;2022-09-09T14:15:12;100898.50;;;22.83;79.40
29505;BME280;16452;54.174;12.092;2022-09-09T14:17:38;100910.44;;;22.62;79.53
29505;BME280;16452;54.174;12.092;2022-09-09T14:20:05;100913.19;;;22.52;79.72
29505;BME280;16452;54.174;12.092;2022-09-09T14:22:33;100910.41;;;22.53;79.42
29505;BME280;16452;54.174;12.092;2022-09-09T14:24:59;100906.34;;;22.49;79.21
29505;BME280;16452;54.174;12.092;2022-09-09T14:27:25;100908.50;;;22.46;80.45
29505;BME280;16452;54.174;12.092;2022-09-09T14:29:52;100914.94;;;22.43;81.12
29505;BME280;16452;54.174;12.092;2022-09-09T14:32:18;100923.69;;;22.18;83.63
29505;BME280;16452;54.174;12.092;2022-09-09T14:34:44;100921.38;;;22.05;85.14
29505;BME280;16452;54.174;12.092;2022-09-09T14:37:10;100924.22;;;21.94;85.90
29505;BME280;16452;54.174;12.092;2022-09-09T14:39:35;100917.13;;;21.95;86.61
29505;BME280;16452;54.174;12.092;2022-09-09T14:42:01;100911.06;;;22.02;87.38
29505;BME280;16452;54.174;12.092;2022-09-09T14:44:28;100911.59;;;22.06;86.99
29505;BME280;16452;54.174;12.092;2022-09-09T14:46:53;100902.63;;;21.89;88.29